San Jose del Cabo (SJD/MMSD)

Map

Destinations

Information

Location
San Jose del Cabo, Baja California Sur, Mexico
Local Time
22:12 / 10:12 pm
GMT Time
06:12 / 6:12 am
Gates
Unassigned
No FAA reported delays
METAR
TAF TAF MMSD 140435Z 1406/1506 00000KT P6SM BKN100 FM141800 20010KT P6SM SCT030 BKN120 OVC250 FM150500 00000KT P6SM BKN100